createdAt,value
2022-10-15T00:01:24.015Z,8.30
2022-10-15T00:03:51.194Z,7.78
2022-10-15T00:06:20.955Z,8.70
2022-10-15T00:08:48.724Z,8.77
2022-10-15T00:11:22.490Z,8.10
2022-10-15T00:13:50.450Z,8.18
2022-10-15T00:16:21.520Z,7.60
2022-10-15T00:18:49.852Z,8.45
2022-10-15T00:21:19.757Z,9.05
2022-10-15T00:23:48.202Z,7.85
2022-10-15T00:26:22.934Z,8.15
2022-10-15T00:28:52.563Z,8.40
2022-10-15T00:31:26.236Z,8.30
2022-10-15T00:33:56.031Z,9.57
2022-10-15T00:36:27.377Z,9.10
2022-10-15T00:38:54.669Z,9.82
2022-10-15T00:41:34.040Z,8.95
2022-10-15T00:44:22.322Z,10.10
2022-10-15T00:47:21.447Z,10.00
2022-10-15T00:49:58.763Z,10.20
2022-10-15T00:53:08.108Z,11.10
2022-10-15T00:55:43.178Z,11.05
2022-10-15T00:58:16.394Z,10.70
2022-10-15T01:00:43.632Z,10.82
2022-10-15T01:03:12.703Z,10.43
2022-10-15T01:05:41.435Z,11.95
2022-10-15T01:08:11.110Z,12.13
2022-10-15T01:11:24.353Z,11.82
2022-10-15T01:14:15.333Z,12.48
2022-10-15T01:16:47.023Z,12.68
2022-10-15T01:19:31.515Z,13.88
2022-10-15T01:22:14.949Z,13.30
2022-10-15T01:24:44.560Z,12.88
2022-10-15T01:27:39.331Z,13.40
2022-10-15T01:30:27.190Z,11.70
2022-10-15T01:33:27.564Z,13.93
2022-10-15T01:36:01.392Z,13.55
2022-10-15T01:38:56.762Z,12.15
2022-10-15T01:41:37.701Z,11.85
2022-10-15T01:44:15.693Z,11.77
2022-10-15T01:47:11.642Z,11.90
2022-10-15T01:49:44.007Z,14.35
2022-10-15T01:52:23.465Z,13.63
2022-10-15T01:54:53.220Z,13.05
2022-10-15T01:57:27.691Z,13.75
2022-10-15T01:59:55.325Z,14.20
2022-10-15T02:02:24.342Z,13.90
2022-10-15T02:04:51.564Z,14.52
2022-10-15T02:07:44.042Z,14.95
2022-10-15T02:10:21.674Z,13.13
2022-10-15T02:13:26.381Z,15.40
2022-10-15T02:16:12.921Z,12.60
2022-10-15T02:19:15.065Z,14.20
2022-10-15T02:21:53.361Z,12.90
2022-10-15T02:24:28.538Z,13.68
2022-10-15T02:27:00.632Z,12.02
2022-10-15T02:29:34.850Z,14.23
2022-10-15T02:32:06.021Z,14.20
2022-10-15T02:34:35.785Z,14.18
2022-10-15T02:37:06.896Z,14.63
2022-10-15T02:39:34.522Z,14.27
2022-10-15T02:42:03.489Z,13.65
2022-10-15T02:44:32.410Z,15.20
2022-10-15T02:47:00.167Z,16.15
2022-10-15T02:49:27.013Z,13.63
2022-10-15T02:51:53.883Z,15.50
2022-10-15T02:54:20.990Z,15.05
2022-10-15T02:56:47.956Z,15.00
2022-10-15T02:59:18.487Z,14.43
2022-10-15T03:01:46.008Z,15.15
2022-10-15T03:04:14.653Z,13.90
2022-10-15T03:06:41.786Z,14.93
2022-10-15T03:09:08.690Z,13.73
2022-10-15T03:11:35.787Z,14.45
2022-10-15T03:14:02.581Z,15.07
2022-10-15T03:16:31.254Z,14.57
2022-10-15T03:18:58.126Z,16.95
2022-10-15T03:21:25.018Z,15.30
2022-10-15T03:23:59.129Z,15.57
2022-10-15T03:26:26.765Z,16.20
2022-10-15T03:28:54.175Z,15.95
2022-10-15T03:31:33.578Z,16.92
2022-10-15T03:34:03.160Z,16.10
2022-10-15T03:36:30.816Z,15.23
2022-10-15T03:38:58.541Z,14.88
2022-10-15T03:41:25.445Z,14.52
2022-10-15T03:43:52.248Z,14.73
2022-10-15T03:46:19.140Z,15.88
2022-10-15T03:48:50.884Z,15.35
2022-10-15T03:51:23.473Z,15.27
2022-10-15T03:53:56.894Z,14.82
2022-10-15T03:56:24.072Z,15.43
2022-10-15T03:58:51.148Z,15.13
2022-10-15T04:01:19.189Z,15.60
2022-10-15T04:03:46.933Z,15.07
2022-10-15T04:06:16.625Z,16.85
2022-10-15T04:08:43.562Z,14.88
2022-10-15T04:11:20.855Z,15.82
2022-10-15T04:13:55.366Z,16.00
2022-10-15T04:16:22.446Z,16.75
2022-10-15T04:18:49.330Z,16.58
2022-10-15T04:21:16.306Z,15.50
2022-10-15T04:23:48.445Z,15.10
2022-10-15T04:26:24.962Z,15.68
2022-10-15T04:28:51.984Z,14.57
2022-10-15T04:31:20.759Z,15.70
2022-10-15T04:33:49.377Z,16.08
2022-10-15T04:38:53.029Z,14.57
2022-10-15T04:41:35.299Z,14.93
2022-10-15T04:44:05.682Z,16.00
2022-10-15T04:46:33.156Z,15.77
2022-10-15T04:49:06.191Z,15.80
2022-10-15T04:51:33.030Z,15.65
2022-10-15T04:54:12.696Z,14.45
2022-10-15T04:56:54.578Z,13.57
2022-10-15T04:59:21.407Z,15.40
2022-10-15T05:02:06.664Z,12.98
2022-10-15T05:04:34.501Z,15.45
2022-10-15T05:07:01.467Z,13.10
2022-10-15T05:09:28.627Z,12.98
2022-10-15T05:11:57.630Z,12.82
2022-10-15T05:14:27.008Z,13.27
2022-10-15T05:17:05.849Z,12.50
2022-10-15T05:19:38.488Z,13.75
2022-10-15T05:22:05.960Z,12.93
2022-10-15T05:24:36.275Z,13.35
2022-10-15T05:29:39.828Z,14.27
2022-10-15T05:32:07.050Z,13.82
2022-10-15T05:34:34.110Z,12.73
2022-10-15T05:37:12.877Z,13.80
2022-10-15T05:39:41.109Z,14.25
2022-10-15T05:42:10.392Z,14.73
2022-10-15T05:44:50.731Z,13.05
2022-10-15T05:47:17.599Z,14.35
2022-10-15T05:49:44.956Z,12.05
2022-10-15T05:52:27.885Z,12.63
2022-10-15T05:55:00.530Z,12.15
2022-10-15T05:57:27.489Z,13.73
2022-10-15T05:59:54.342Z,14.10
2022-10-15T06:02:21.309Z,14.00
2022-10-15T06:04:49.055Z,13.15
2022-10-15T06:07:15.873Z,15.65
2022-10-15T06:09:42.699Z,13.95
2022-10-15T06:12:09.845Z,13.13
2022-10-15T06:14:36.818Z,12.63
2022-10-15T06:17:06.872Z,12.63
2022-10-15T06:19:33.754Z,13.65
2022-10-15T06:22:00.571Z,12.23
2022-10-15T06:24:28.451Z,11.00
2022-10-15T06:26:55.273Z,11.82
2022-10-15T06:29:22.065Z,11.95
2022-10-15T06:31:51.169Z,14.05
2022-10-15T06:34:18.188Z,14.90
2022-10-15T06:36:45.104Z,12.48
2022-10-15T06:39:12.143Z,11.82
2022-10-15T06:41:39.889Z,11.65
2022-10-15T06:44:06.736Z,11.38
2022-10-15T06:46:33.532Z,11.07
2022-10-15T06:49:00.467Z,10.75
2022-10-15T06:51:27.335Z,11.43
2022-10-15T06:53:54.146Z,10.43
2022-10-15T06:56:21.185Z,10.52
2022-10-15T06:58:47.997Z,10.90
2022-10-15T07:01:15.134Z,10.93
2022-10-15T07:03:42.092Z,9.85
2022-10-15T07:06:10.021Z,9.77
2022-10-15T07:08:37.183Z,9.07
2022-10-15T07:11:06.695Z,9.15
2022-10-15T07:13:33.746Z,8.85
2022-10-15T07:16:12.406Z,8.05
2022-10-15T07:18:40.276Z,8.40
2022-10-15T07:23:41.145Z,7.15
2022-10-15T07:26:07.997Z,7.00
2022-10-15T07:28:34.963Z,8.20
2022-10-15T07:31:05.008Z,6.95
2022-10-15T07:33:34.588Z,6.43
2022-10-15T07:36:11.200Z,6.10
2022-10-15T07:38:38.248Z,5.97
2022-10-15T07:41:05.999Z,5.60
2022-10-15T07:43:40.589Z,5.45
2022-10-15T07:46:07.400Z,5.30
2022-10-15T07:48:34.389Z,5.05
2022-10-15T07:51:05.274Z,5.13
2022-10-15T07:53:32.780Z,4.25
2022-10-15T07:56:08.092Z,4.18
2022-10-15T07:58:38.055Z,3.83
2022-10-15T08:01:06.942Z,3.72
2022-10-15T08:03:35.221Z,3.47
2022-10-15T08:06:08.139Z,3.60
2022-10-15T08:08:36.979Z,3.08
2022-10-15T08:11:12.821Z,3.13
2022-10-15T08:13:42.101Z,2.72
2022-10-15T08:16:15.239Z,2.70
2022-10-15T08:18:43.492Z,2.78
2022-10-15T08:21:12.076Z,2.92
2022-10-15T08:23:39.282Z,2.55
2022-10-15T08:26:06.480Z,2.67
2022-10-15T08:28:35.785Z,2.35
2022-10-15T08:31:05.868Z,2.90
2022-10-15T08:33:35.413Z,2.42
2022-10-15T08:36:04.708Z,2.28
2022-10-15T08:38:32.028Z,2.33
2022-10-15T08:41:01.634Z,2.38
2022-10-15T08:43:39.960Z,2.47
2022-10-15T08:46:37.448Z,2.42
2022-10-15T08:49:07.643Z,2.30
2022-10-15T08:51:54.609Z,2.35
2022-10-15T08:54:21.445Z,2.10
2022-10-15T08:57:09.031Z,2.33
2022-10-15T09:00:22.293Z,1.80
2022-10-15T09:03:04.828Z,2.30
2022-10-15T09:05:54.874Z,2.15
2022-10-15T09:09:01.426Z,2.78
2022-10-15T09:11:50.410Z,2.05
2022-10-15T09:14:25.169Z,2.20
2022-10-15T09:16:52.085Z,1.77
2022-10-15T09:19:23.736Z,1.90
2022-10-15T09:21:52.967Z,1.85
2022-10-15T09:24:25.942Z,1.77
2022-10-15T09:27:19.497Z,1.90
2022-10-15T09:30:06.518Z,1.77
2022-10-15T09:33:30.054Z,1.92
2022-10-15T09:36:26.236Z,1.95
2022-10-15T09:39:13.295Z,2.10
2022-10-15T09:42:09.158Z,2.00
2022-10-15T09:44:44.297Z,2.25
2022-10-15T09:47:24.554Z,1.73
2022-10-15T09:49:55.726Z,1.90
2022-10-15T09:52:46.928Z,2.17
2022-10-15T09:55:42.731Z,2.72
2022-10-15T09:58:20.840Z,1.90
2022-10-15T10:01:06.106Z,2.08
2022-10-15T10:03:39.831Z,1.92
2022-10-15T10:06:12.982Z,1.92
2022-10-15T10:08:59.630Z,2.17
2022-10-15T10:11:45.255Z,2.00
2022-10-15T10:14:32.453Z,1.95
2022-10-15T10:17:05.311Z,1.85
2022-10-15T10:19:32.455Z,2.20
2022-10-15T10:22:20.752Z,2.22
2022-10-15T10:24:48.310Z,2.05
2022-10-15T10:27:27.696Z,2.30
2022-10-15T10:30:10.908Z,2.22
2022-10-15T10:32:38.544Z,1.60
2022-10-15T10:35:15.401Z,1.90
2022-10-15T10:37:43.207Z,1.88
2022-10-15T10:40:35.194Z,2.05
2022-10-15T10:43:30.093Z,2.20
2022-10-15T10:46:02.440Z,2.15
2022-10-15T10:48:46.452Z,2.15
2022-10-15T10:51:19.513Z,2.15
2022-10-15T10:53:57.049Z,2.20
2022-10-15T10:56:34.234Z,1.80
2022-10-15T10:59:19.456Z,2.30
2022-10-15T11:01:50.678Z,1.90
2022-10-15T11:04:40.609Z,2.20
2022-10-15T11:07:39.309Z,2.40
2022-10-15T11:10:22.460Z,1.90
2022-10-15T11:13:43.637Z,2.15
2022-10-15T11:16:36.648Z,2.17
2022-10-15T11:19:54.559Z,2.10
2022-10-15T11:22:52.442Z,2.47
2022-10-15T11:25:49.151Z,1.90
2022-10-15T11:28:27.950Z,2.25
2022-10-15T11:31:10.788Z,2.13
2022-10-15T11:34:05.578Z,2.30
2022-10-15T11:36:56.799Z,2.17
2022-10-15T11:39:58.000Z,2.35
2022-10-15T11:43:03.094Z,2.30
2022-10-15T11:46:03.096Z,2.33
2022-10-15T11:49:00.314Z,2.08
2022-10-15T11:52:13.978Z,2.50
2022-10-15T11:54:57.951Z,2.30
2022-10-15T11:57:27.965Z,2.40
2022-10-15T12:00:16.952Z,2.47
2022-10-15T12:02:45.529Z,2.38
2022-10-15T12:05:40.036Z,2.60
2022-10-15T12:08:12.249Z,1.90
2022-10-15T12:10:57.027Z,2.10
2022-10-15T12:13:52.654Z,1.83
2022-10-15T12:16:42.847Z,2.25
2022-10-15T12:19:20.021Z,1.52
2022-10-15T12:21:55.992Z,1.95
2022-10-15T12:24:38.481Z,1.90
2022-10-15T12:27:20.377Z,1.75
2022-10-15T12:29:52.144Z,1.60
2022-10-15T12:32:36.643Z,1.75
2022-10-15T12:35:15.768Z,1.80
2022-10-15T12:37:49.440Z,2.03
2022-10-15T12:40:22.299Z,1.75
2022-10-15T12:43:16.405Z,1.88
2022-10-15T12:45:57.876Z,1.95
2022-10-15T12:48:37.173Z,1.92
2022-10-15T12:51:31.341Z,2.03
2022-10-15T12:54:00.342Z,1.73
2022-10-15T12:56:40.347Z,1.63
2022-10-15T12:59:45.268Z,1.38
2022-10-15T13:02:45.400Z,1.70
2022-10-15T13:05:36.259Z,1.50
2022-10-15T13:08:14.826Z,1.30
2022-10-15T13:10:51.978Z,1.75
2022-10-15T13:13:26.414Z,1.55
2022-10-15T13:16:01.240Z,1.80
2022-10-15T13:18:31.476Z,3.35
2022-10-15T13:20:59.210Z,2.40
2022-10-15T13:23:33.128Z,2.92
2022-10-15T13:26:29.126Z,2.28
2022-10-15T13:28:58.977Z,1.80
2022-10-15T13:31:35.225Z,1.70
2022-10-15T13:34:36.559Z,1.77
2022-10-15T13:37:05.308Z,1.38
2022-10-15T13:39:42.087Z,1.30
2022-10-15T13:42:19.107Z,1.42
2022-10-15T13:45:03.214Z,1.42
2022-10-15T13:47:41.054Z,1.13
2022-10-15T13:50:23.183Z,0.90
2022-10-15T13:53:15.029Z,1.17
2022-10-15T13:55:51.203Z,1.88
2022-10-15T13:58:31.267Z,1.80
2022-10-15T14:01:17.634Z,1.15
2022-10-15T14:04:03.989Z,0.60
2022-10-15T14:06:40.047Z,1.10
2022-10-15T14:09:31.095Z,0.38
2022-10-15T14:12:03.253Z,0.70
2022-10-15T14:14:41.711Z,0.70
2022-10-15T14:17:32.169Z,0.45
2022-10-15T14:20:26.327Z,0.50
2022-10-15T14:22:53.399Z,0.30
2022-10-15T14:25:26.527Z,0.70
2022-10-15T14:27:53.538Z,0.20
2022-10-15T14:30:39.404Z,0.50
2022-10-15T14:33:29.955Z,0.50
2022-10-15T14:36:21.754Z,0.60
2022-10-15T14:38:51.196Z,0.90
2022-10-15T14:42:28.435Z,1.33
2022-10-15T14:44:55.979Z,1.60
2022-10-15T14:47:32.555Z,1.38
2022-10-15T14:50:01.926Z,1.80
2022-10-15T14:52:30.458Z,1.67
2022-10-15T14:55:14.178Z,1.70
2022-10-15T14:57:45.030Z,1.88
2022-10-15T15:00:25.580Z,2.00
2022-10-15T15:02:56.968Z,2.15
2022-10-15T15:05:27.839Z,2.20
2022-10-15T15:07:57.047Z,2.00
2022-10-15T15:10:27.524Z,2.55
2022-10-15T15:12:57.090Z,2.20
2022-10-15T15:15:27.416Z,2.40
2022-10-15T15:17:54.563Z,2.35
2022-10-15T15:20:24.276Z,2.38
2022-10-15T15:22:54.707Z,2.78
2022-10-15T15:25:33.696Z,2.10
2022-10-15T15:28:01.697Z,2.83
2022-10-15T15:30:32.694Z,2.50
2022-10-15T15:33:00.660Z,2.58
2022-10-15T15:35:52.260Z,2.55
2022-10-15T15:38:21.712Z,2.80
2022-10-15T15:40:49.990Z,2.40
2022-10-15T15:43:19.146Z,2.50
2022-10-15T15:45:47.175Z,2.80
2022-10-15T15:48:14.225Z,3.17
2022-10-15T15:50:41.432Z,2.88
2022-10-15T15:53:11.857Z,2.70
2022-10-15T15:55:39.223Z,2.83
2022-10-15T15:58:06.332Z,2.78
2022-10-15T16:00:33.293Z,2.78
2022-10-15T16:03:00.496Z,2.85
2022-10-15T16:05:27.451Z,2.80
2022-10-15T16:07:54.411Z,3.38
2022-10-15T16:10:21.501Z,2.70
2022-10-15T16:12:48.350Z,3.00
2022-10-15T16:15:15.399Z,3.53
2022-10-15T16:17:43.700Z,3.42
2022-10-15T16:20:11.606Z,3.63
2022-10-15T16:22:38.673Z,3.63
2022-10-15T16:25:06.355Z,3.45
2022-10-15T16:27:34.560Z,3.70
2022-10-15T16:30:03.316Z,3.58
2022-10-15T16:32:30.311Z,4.20
2022-10-15T16:34:57.126Z,3.53
2022-10-15T16:37:24.155Z,3.80
2022-10-15T16:39:51.196Z,3.92
2022-10-15T16:44:50.219Z,4.38
2022-10-15T16:47:16.994Z,4.47
2022-10-15T16:49:43.919Z,4.75
2022-10-15T16:52:11.316Z,5.28
2022-10-15T16:54:38.405Z,5.35
2022-10-15T16:57:05.933Z,4.80
2022-10-15T16:59:33.019Z,6.07
2022-10-15T17:02:01.231Z,5.15
2022-10-15T17:04:28.249Z,6.50
2022-10-15T17:06:55.266Z,6.57
2022-10-15T17:09:23.660Z,6.57
2022-10-15T17:11:50.838Z,7.55
2022-10-15T17:14:18.278Z,9.25
2022-10-15T17:16:51.288Z,8.18
2022-10-15T17:19:29.076Z,10.25
2022-10-15T17:21:58.740Z,12.02
2022-10-15T17:24:25.693Z,14.13
2022-10-15T17:26:54.677Z,15.60
2022-10-15T17:29:23.041Z,14.90
2022-10-15T17:31:51.753Z,15.98
2022-10-15T17:34:19.039Z,14.93
2022-10-15T17:36:48.894Z,14.57
2022-10-15T17:39:32.482Z,12.55
2022-10-15T17:41:59.631Z,10.00
2022-10-15T17:44:26.520Z,8.38
2022-10-15T17:46:53.944Z,8.48
2022-10-15T17:49:28.293Z,7.53
2022-10-15T17:51:55.239Z,8.20
2022-10-15T17:54:22.132Z,8.48
2022-10-15T17:56:49.993Z,9.48
2022-10-15T17:59:16.968Z,10.43
2022-10-15T18:02:00.757Z,11.07
2022-10-15T18:04:32.609Z,14.85
2022-10-15T18:06:59.429Z,15.90
2022-10-15T18:09:28.166Z,16.52
2022-10-15T18:11:57.377Z,19.15
2022-10-15T18:14:29.214Z,20.25
2022-10-15T18:16:56.753Z,21.88
2022-10-15T18:19:25.762Z,24.38
2022-10-15T18:21:53.126Z,21.75
2022-10-15T18:24:22.065Z,18.80
2022-10-15T18:26:52.995Z,15.32
2022-10-15T18:29:20.566Z,13.82
2022-10-15T18:31:47.591Z,11.27
2022-10-15T18:34:14.820Z,15.50
2022-10-15T18:36:43.431Z,26.92
2022-10-15T18:39:10.953Z,31.17
2022-10-15T18:41:39.988Z,28.55
2022-10-15T18:44:15.738Z,22.30
2022-10-15T18:46:44.965Z,19.85
2022-10-15T18:49:14.576Z,19.02
2022-10-15T18:51:41.970Z,19.25
2022-10-15T18:54:10.765Z,17.83
2022-10-15T18:56:37.866Z,15.25
2022-10-15T18:59:05.318Z,13.82
2022-10-15T19:01:44.020Z,13.02
2022-10-15T19:04:15.417Z,11.40
2022-10-15T19:06:46.385Z,11.10
2022-10-15T19:09:18.058Z,9.63
2022-10-15T19:11:47.835Z,10.20
2022-10-15T19:14:15.933Z,9.95
2022-10-15T19:16:44.939Z,10.48
2022-10-15T19:19:16.148Z,10.18
2022-10-15T19:21:48.774Z,10.30
2022-10-15T19:24:17.837Z,9.90
2022-10-15T19:26:46.351Z,11.38
2022-10-15T19:29:13.523Z,11.55
2022-10-15T19:31:43.771Z,10.20
2022-10-15T19:34:12.030Z,9.63
2022-10-15T19:36:50.742Z,9.98
2022-10-15T19:39:23.890Z,10.23
2022-10-15T19:41:52.193Z,9.05
2022-10-15T19:44:25.691Z,10.88
2022-10-15T19:46:57.215Z,9.70
2022-10-15T19:49:25.229Z,10.02
2022-10-15T19:51:52.645Z,10.88
2022-10-15T19:54:19.682Z,10.88
2022-10-15T19:56:46.641Z,9.85
2022-10-15T19:59:14.435Z,14.75
2022-10-15T20:01:41.385Z,13.45
2022-10-15T20:04:08.459Z,12.93
2022-10-15T20:06:38.456Z,11.50
2022-10-15T20:09:07.135Z,13.10
2022-10-15T20:11:34.898Z,12.63
2022-10-15T20:14:02.541Z,12.77
2022-10-15T20:16:33.132Z,12.80
2022-10-15T20:19:03.899Z,11.27
2022-10-15T20:21:31.583Z,12.20
2022-10-15T20:23:59.578Z,12.55
2022-10-15T20:26:26.536Z,11.52
2022-10-15T20:28:53.651Z,11.05
2022-10-15T20:31:21.646Z,14.13
2022-10-15T20:33:49.205Z,13.52
2022-10-15T20:36:23.433Z,14.20
2022-10-15T20:38:51.644Z,13.55
2022-10-15T20:41:19.842Z,13.48
2022-10-15T20:43:54.138Z,15.00
2022-10-15T20:46:36.854Z,14.02
2022-10-15T20:49:09.163Z,13.30
2022-10-15T20:51:41.082Z,14.65
2022-10-15T20:54:09.338Z,12.30
2022-10-15T20:56:36.455Z,13.82
2022-10-15T20:59:05.043Z,12.82
2022-10-15T21:01:34.267Z,13.15
2022-10-15T21:04:01.822Z,13.40
2022-10-15T21:06:29.075Z,13.02
2022-10-15T21:08:57.674Z,14.35
2022-10-15T21:11:24.548Z,14.68
2022-10-15T21:13:51.454Z,13.77
2022-10-15T21:16:18.535Z,14.07
2022-10-15T21:18:45.424Z,13.68
2022-10-15T21:21:14.797Z,13.70
2022-10-15T21:23:42.773Z,12.65
2022-10-15T21:26:18.528Z,13.98
2022-10-15T21:28:45.593Z,16.60
2022-10-15T21:31:16.440Z,17.15
2022-10-15T21:33:44.252Z,15.55
2022-10-15T21:36:26.353Z,15.27
2022-10-15T21:39:00.706Z,14.75
2022-10-15T21:41:34.313Z,13.55
2022-10-15T21:44:02.736Z,15.57
2022-10-15T21:46:32.928Z,14.45
2022-10-15T21:49:02.577Z,15.02
2022-10-15T21:51:33.275Z,13.98
2022-10-15T21:54:01.752Z,13.40
2022-10-15T21:56:29.517Z,13.55
2022-10-15T21:58:58.858Z,14.27
2022-10-15T22:01:31.157Z,12.27
2022-10-15T22:04:02.004Z,11.95
2022-10-15T22:06:29.385Z,12.52
2022-10-15T22:08:58.449Z,12.13
2022-10-15T22:11:28.988Z,11.40
2022-10-15T22:13:59.351Z,12.10
2022-10-15T22:16:28.597Z,12.95
2022-10-15T22:18:56.806Z,12.10
2022-10-15T22:21:36.596Z,12.63
2022-10-15T22:24:12.943Z,11.25
2022-10-15T22:26:45.647Z,11.38
2022-10-15T22:29:23.235Z,10.27
2022-10-15T22:31:53.394Z,11.27
2022-10-15T22:34:22.194Z,11.23
2022-10-15T22:36:49.383Z,10.68
2022-10-15T22:39:18.170Z,11.32
2022-10-15T22:41:47.765Z,10.43
2022-10-15T22:44:18.676Z,11.52
2022-10-15T22:46:49.103Z,11.73
2022-10-15T22:49:19.680Z,11.50
2022-10-15T22:51:48.023Z,12.90
2022-10-15T22:54:17.520Z,10.98
2022-10-15T22:56:45.310Z,12.40
2022-10-15T22:59:12.783Z,12.52
2022-10-15T23:01:39.745Z,11.88
2022-10-15T23:04:08.482Z,12.35
2022-10-15T23:06:37.414Z,12.57
2022-10-15T23:09:06.778Z,14.43
2022-10-15T23:11:36.179Z,13.77
2022-10-15T23:14:07.416Z,13.80
2022-10-15T23:16:38.426Z,14.30
2022-10-15T23:19:22.394Z,13.93
2022-10-15T23:21:56.482Z,12.10
2022-10-15T23:24:26.656Z,13.43
2022-10-15T23:26:53.759Z,14.25
2022-10-15T23:29:24.696Z,14.20
2022-10-15T23:31:52.289Z,14.45
2022-10-15T23:34:25.999Z,13.70
2022-10-15T23:36:53.300Z,13.45
2022-10-15T23:39:24.212Z,13.68
2022-10-15T23:41:51.366Z,13.73
2022-10-15T23:44:18.783Z,12.85
2022-10-15T23:46:46.007Z,11.88
2022-10-15T23:49:13.816Z,13.15
2022-10-15T23:51:40.970Z,13.10
2022-10-15T23:54:16.307Z,12.23
2022-10-15T23:56:44.864Z,15.63
2022-10-15T23:59:11.988Z,14.15
